Time;durP1;ratioP1;P1;durP2;ratioP2;P2;SDS_P1;SDS_P2;PMS_P1;PMS_P2;Temp;Humidity;BMP_temperature;BMP_pressure;BME280_temperature;BME280_humidity;BME280_pressure;Samples;Min_cycle;Max_cycle;Signal;HPM_P1;HPM_P2
2022/10/29 00:04:48;;;;;;;4.03;3.20;;;17.60;44.20;;;;;;10379115;28;20743;-68
2022/10/29 00:09:51;;;;;;;4.73;3.70;;;17.60;44.40;;;;;;10378980;28;20229;-68
2022/10/29 00:14:54;;;;;;;5.90;3.50;;;17.60;44.20;;;;;;10378832;28;20226;-66
2022/10/29 00:19:59;;;;;;;5.50;4.40;;;17.50;44.10;;;;;;10375613;28;20249;-68
2022/10/29 00:25:02;;;;;;;8.40;4.57;;;17.50;44.70;;;;;;10383012;28;20320;-68
2022/10/29 00:30:06;;;;;;;5.13;3.63;;;17.40;44.30;;;;;;10378243;28;20283;-68
2022/10/29 00:35:10;;;;;;;7.63;3.40;;;17.40;44.50;;;;;;10378873;28;20233;-68
2022/10/29 00:40:14;;;;;;;5.00;3.30;;;17.40;44.80;;;;;;10381943;28;20283;-68
2022/10/29 00:45:19;;;;;;;6.30;3.60;;;17.40;44.50;;;;;;10384916;28;20229;-69
2022/10/29 00:50:25;;;;;;;4.03;3.10;;;17.40;44.80;;;;;;10385696;28;20303;-73
2022/10/29 00:55:28;;;;;;;3.83;3.50;;;17.30;44.60;;;;;;10390152;28;20292;-73
2022/10/29 01:00:31;;;;;;;3.60;3.30;;;17.30;44.30;;;;;;10388147;28;20261;-73
2022/10/29 01:05:36;;;;;;;4.07;3.57;;;17.30;44.30;;;;;;10385990;28;20233;-74
2022/10/29 01:10:47;;;;;;;4.97;3.90;;;17.30;44.50;;;;;;10384607;28;20237;-73
2022/10/29 01:15:59;;;;;;;5.07;3.50;;;17.20;44.00;;;;;;10384697;28;20238;-73
2022/10/29 01:21:35;;;;;;;4.83;3.57;;;17.20;44.20;;;;;;10386283;28;20226;-68
2022/10/29 01:27:19;;;;;;;4.97;3.47;;;17.10;44.30;;;;;;10382435;28;20644;-66
2022/10/29 01:32:29;;;;;;;4.10;3.70;;;17.00;44.30;;;;;;10380070;28;20234;-67
2022/10/29 01:37:38;;;;;;;3.73;3.30;;;16.90;44.00;;;;;;10380579;28;20262;-67
2022/10/29 01:42:47;;;;;;;4.07;3.13;;;16.80;44.00;;;;;;10386441;28;20237;-67
2022/10/29 01:47:56;;;;;;;3.83;3.23;;;16.80;44.30;;;;;;10382518;28;20301;-66
2022/10/29 01:53:03;;;;;;;4.33;3.20;;;16.70;44.40;;;;;;10385590;28;20233;-67
2022/10/29 01:58:07;;;;;;;3.83;3.20;;;16.70;44.30;;;;;;10384725;28;20760;-68
2022/10/29 02:03:26;;;;;;;3.33;2.87;;;16.60;44.00;;;;;;10382711;28;20230;-68
2022/10/29 02:08:37;;;;;;;5.27;2.93;;;16.60;44.50;;;;;;10384978;28;20246;-68
2022/10/29 02:13:46;;;;;;;3.07;2.80;;;16.50;44.50;;;;;;10386975;28;20222;-73
2022/10/29 02:18:51;;;;;;;3.47;2.80;;;16.40;44.70;;;;;;10385989;28;20726;-74
2022/10/29 02:23:55;;;;;;;5.43;3.53;;;16.40;44.60;;;;;;10383536;28;20237;-73
2022/10/29 02:28:58;;;;;;;5.10;3.40;;;16.30;44.50;;;;;;10381527;28;20724;-74
2022/10/29 02:34:02;;;;;;;3.13;2.83;;;16.30;44.50;;;;;;10383509;28;20655;-73
2022/10/29 02:39:06;;;;;;;7.60;3.00;;;16.20;44.80;;;;;;10380581;28;20235;-73
2022/10/29 02:44:09;;;;;;;4.67;3.10;;;16.10;44.60;;;;;;10379458;28;20677;-73
2022/10/29 02:49:13;;;;;;;4.50;2.90;;;16.10;44.70;;;;;;10382606;28;20285;-73
2022/10/29 02:54:16;;;;;;;2.97;2.60;;;16.00;45.00;;;;;;10385087;28;20238;-73
2022/10/29 02:59:19;;;;;;;3.73;2.90;;;16.00;44.70;;;;;;10381344;28;20233;-73
2022/10/29 03:04:24;;;;;;;3.80;2.80;;;15.90;44.90;;;;;;10385395;28;20230;-73
2022/10/29 03:09:27;;;;;;;2.97;2.77;;;15.90;44.90;;;;;;10388143;28;20233;-73
2022/10/29 03:14:30;;;;;;;5.13;2.83;;;15.80;44.70;;;;;;10381651;28;20230;-73
2022/10/29 03:19:34;;;;;;;3.10;2.40;;;15.80;45.00;;;;;;10381915;28;20233;-73
2022/10/29 03:24:38;;;;;;;2.60;2.40;;;15.80;45.00;;;;;;10378269;28;20907;-73
2022/10/29 03:29:41;;;;;;;4.30;2.63;;;15.80;45.00;;;;;;10383723;28;20235;-73
2022/10/29 03:34:45;;;;;;;3.43;2.47;;;15.80;45.00;;;;;;10377423;28;20234;-73
2022/10/29 03:39:48;;;;;;;2.77;2.53;;;15.70;45.00;;;;;;10382421;28;20226;-74
2022/10/29 03:44:51;;;;;;;3.13;2.60;;;15.70;45.00;;;;;;10378677;28;20245;-73
2022/10/29 03:49:56;;;;;;;3.37;2.80;;;15.70;45.00;;;;;;10381357;28;20234;-73
2022/10/29 03:54:59;;;;;;;5.77;2.80;;;15.70;45.00;;;;;;10382235;28;20285;-73
2022/10/29 04:00:03;;;;;;;3.10;2.60;;;15.70;45.00;;;;;;10382248;28;20231;-72
2022/10/29 04:05:08;;;;;;;3.30;2.37;;;15.70;45.00;;;;;;10379592;28;20238;-73
2022/10/29 04:10:11;;;;;;;5.33;2.53;;;15.60;45.90;;;;;;10376213;28;20240;-73
2022/10/29 04:15:15;;;;;;;3.33;2.67;;;15.60;45.80;;;;;;10377789;28;20248;-73
2022/10/29 04:20:19;;;;;;;4.63;2.57;;;15.60;46.00;;;;;;10382896;28;20284;-74
2022/10/29 04:25:42;;;;;;;2.77;2.53;;;15.60;47.40;;;;;;10377033;28;20238;-74
2022/10/29 04:31:06;;;;;;;3.80;2.87;;;15.60;46.20;;;;;;10380242;28;20237;-73
2022/10/29 04:36:10;;;;;;;3.73;2.60;;;15.60;46.70;;;;;;10375749;28;20250;-73
2022/10/29 04:41:13;;;;;;;4.20;2.43;;;15.60;47.00;;;;;;10380622;28;20230;-74
2022/10/29 04:46:17;;;;;;;4.37;2.73;;;15.60;46.70;;;;;;10374494;28;20234;-73
2022/10/29 04:51:23;;;;;;;4.00;2.60;;;15.60;46.80;;;;;;10386175;28;20230;-74
2022/10/29 04:56:26;;;;;;;5.23;2.73;;;15.70;47.40;;;;;;10377474;28;20238;-74
2022/10/29 05:01:30;;;;;;;3.30;3.00;;;15.70;46.70;;;;;;10374800;28;20233;-74
2022/10/29 05:06:35;;;;;;;2.90;2.70;;;15.80;46.80;;;;;;10381854;28;20229;-74
2022/10/29 05:11:38;;;;;;;2.97;2.70;;;15.90;46.80;;;;;;10381607;28;20230;-73
2022/10/29 05:16:41;;;;;;;2.47;2.27;;;15.90;46.30;;;;;;10380514;28;20267;-74
2022/10/29 05:21:46;;;;;;;3.40;2.43;;;15.90;46.20;;;;;;10381974;28;20358;-74
2022/10/29 05:26:49;;;;;;;3.63;2.73;;;15.90;46.30;;;;;;10383269;28;20234;-74
2022/10/29 05:31:54;;;;;;;5.20;3.60;;;15.90;45.80;;;;;;10389719;28;20734;-74
2022/10/29 05:36:58;;;;;;;3.47;3.10;;;15.90;46.00;;;;;;10382361;28;20288;-73
2022/10/29 05:42:01;;;;;;;2.83;2.60;;;15.80;46.10;;;;;;10389157;28;20237;-74
2022/10/29 05:47:06;;;;;;;4.47;2.53;;;15.80;46.00;;;;;;10383439;28;21053;-73
2022/10/29 05:52:11;;;;;;;3.47;2.80;;;15.70;46.50;;;;;;10385308;28;20234;-73
2022/10/29 05:57:14;;;;;;;5.60;2.90;;;15.70;46.60;;;;;;10382678;28;20313;-74
2022/10/29 06:02:17;;;;;;;4.10;2.97;;;15.70;46.30;;;;;;10390689;28;20238;-74
2022/10/29 06:07:22;;;;;;;4.03;3.23;;;15.70;46.50;;;;;;10385503;28;20238;-74
2022/10/29 06:12:25;;;;;;;3.80;3.50;;;15.70;46.80;;;;;;10387225;28;20233;-73
2022/10/29 06:17:31;;;;;;;4.47;3.70;;;15.80;46.60;;;;;;10384248;28;20234;-73
2022/10/29 06:22:36;;;;;;;5.80;3.60;;;15.80;46.60;;;;;;10385584;28;20246;-74
2022/10/29 06:27:39;;;;;;;5.30;3.47;;;15.80;46.80;;;;;;10387086;28;20240;-74
2022/10/29 06:32:47;;;;;;;3.97;3.63;;;15.80;46.50;;;;;;10384947;28;20284;-74
2022/10/29 06:37:51;;;;;;;4.37;3.70;;;15.70;47.30;;;;;;10382308;28;20684;-74
2022/10/29 06:43:02;;;;;;;4.37;3.83;;;15.70;47.00;;;;;;10387995;28;20236;-74
2022/10/29 06:48:06;;;;;;;6.77;4.07;;;15.70;47.80;;;;;;10381586;28;20241;-74
2022/10/29 06:53:13;;;;;;;4.20;3.90;;;15.80;47.30;;;;;;10383406;28;20790;-73
2022/10/29 06:58:18;;;;;;;4.33;3.87;;;15.80;47.80;;;;;;10381822;28;20916;-73
2022/10/29 07:03:23;;;;;;;6.03;4.43;;;15.80;47.60;;;;;;10384149;28;20608;-73
2022/10/29 07:08:27;;;;;;;6.50;4.63;;;15.80;47.30;;;;;;10382040;28;20241;-73
2022/10/29 07:13:31;;;;;;;7.33;4.63;;;15.90;47.90;;;;;;10380952;28;20260;-73
2022/10/29 07:18:34;;;;;;;7.17;4.67;;;15.90;47.40;;;;;;10379879;28;20236;-74
2022/10/29 07:23:38;;;;;;;5.90;4.40;;;16.00;47.60;;;;;;10383983;28;20230;-73
2022/10/29 07:28:41;;;;;;;4.30;3.70;;;16.00;48.00;;;;;;10378898;28;20234;-73
2022/10/29 07:33:44;;;;;;;5.87;3.23;;;16.10;47.80;;;;;;10384157;28;20245;-73
2022/10/29 07:38:49;;;;;;;4.53;3.10;;;16.10;47.90;;;;;;10375799;28;20743;-73
2022/10/29 07:43:52;;;;;;;3.47;3.00;;;16.10;48.40;;;;;;10371526;28;20280;-73
2022/10/29 07:48:55;;;;;;;5.07;2.87;;;16.20;48.00;;;;;;10374222;28;20229;-74
2022/10/29 07:54:00;;;;;;;4.50;3.43;;;16.20;48.10;;;;;;10382674;28;20225;-74
2022/10/29 07:59:03;;;;;;;5.60;3.47;;;16.30;48.80;;;;;;10367323;28;20599;-72
2022/10/29 08:04:06;;;;;;;3.40;3.10;;;16.30;48.40;;;;;;10381691;28;20237;-74
2022/10/29 08:09:12;;;;;;;3.97;3.23;;;16.40;48.40;;;;;;10377096;28;20233;-72
2022/10/29 08:14:15;;;;;;;5.03;3.60;;;16.40;49.40;;;;;;10375384;28;20288;-73
2022/10/29 08:19:22;;;;;;;5.27;3.60;;;16.50;48.90;;;;;;10376280;28;20245;-74
2022/10/29 08:24:27;;;;;;;3.90;3.30;;;16.60;49.20;;;;;;10375046;28;20226;-73
2022/10/29 08:29:30;;;;;;;4.93;3.93;;;16.70;49.70;;;;;;10372292;28;20284;-73
2022/10/29 08:34:33;;;;;;;5.23;3.30;;;16.80;49.40;;;;;;10379998;28;20229;-73
2022/10/29 08:39:37;;;;;;;3.23;2.93;;;16.80;49.60;;;;;;10377631;28;20968;-72
2022/10/29 08:45:00;;;;;;;4.47;3.50;;;16.90;50.20;;;;;;10378903;28;20745;-73
2022/10/29 08:50:10;;;;;;;5.60;3.87;;;17.00;51.30;;;;;;10368895;28;20291;-72
2022/10/29 08:55:18;;;;;;;5.17;3.50;;;17.10;50.80;;;;;;10367242;28;20225;-73
2022/10/29 09:00:23;;;;;;;6.10;3.60;;;17.20;51.00;;;;;;10379500;28;20241;-73
2022/10/29 09:05:32;;;;;;;7.20;3.90;;;17.30;50.30;;;;;;10386181;28;20738;-73
2022/10/29 09:10:43;;;;;;;4.63;3.60;;;17.40;51.00;;;;;;10384804;28;20234;-71
2022/10/29 09:15:57;;;;;;;7.70;3.63;;;17.60;52.30;;;;;;10385953;28;20237;-73
2022/10/29 09:21:08;;;;;;;8.83;3.63;;;17.80;53.30;;;;;;10380662;28;20229;-69
2022/10/29 09:26:16;;;;;;;6.60;3.27;;;18.00;50.80;;;;;;10382159;28;20806;-69
2022/10/29 09:31:29;;;;;;;4.20;3.10;;;18.20;50.60;;;;;;10383772;28;20244;-70
2022/10/29 09:36:33;;;;;;;3.83;3.03;;;18.40;50.10;;;;;;10385738;28;20801;-71
2022/10/29 09:41:39;;;;;;;7.40;3.50;;;18.60;50.10;;;;;;10379329;28;20221;-70
2022/10/29 09:46:49;;;;;;;7.47;3.50;;;18.80;50.00;;;;;;10384286;28;20295;-72
2022/10/29 09:51:57;;;;;;;8.00;3.17;;;18.90;50.20;;;;;;10382290;28;20725;-73
2022/10/29 09:57:03;;;;;;;7.07;3.07;;;19.20;49.60;;;;;;10382495;28;20661;-69
2022/10/29 10:02:24;;;;;;;5.87;3.40;;;19.40;48.90;;;;;;10375244;28;20622;-69
2022/10/29 10:07:28;;;;;;;5.73;3.23;;;19.60;48.40;;;;;;10379846;28;20728;-72
2022/10/29 10:12:46;;;;;;;6.93;3.40;;;19.90;48.70;;;;;;10383258;28;20631;-72
2022/10/29 10:18:01;;;;;;;4.27;3.20;;;20.10;48.80;;;;;;10381849;28;20232;-71
2022/10/29 10:23:22;;;;;;;4.97;3.10;;;20.30;48.20;;;;;;10380690;28;20317;-69
2022/10/29 10:28:30;;;;;;;7.10;3.30;;;20.50;47.70;;;;;;10376826;28;20244;-69
2022/10/29 10:33:34;;;;;;;7.47;3.20;;;20.70;47.50;;;;;;10385391;28;20240;-69
2022/10/29 10:38:40;;;;;;;4.63;2.93;;;20.90;47.50;;;;;;10379958;28;20246;-69
2022/10/29 10:43:46;;;;;;;6.93;3.00;;;21.10;46.80;;;;;;10383331;28;20232;-72
2022/10/29 10:48:58;;;;;;;7.53;2.97;;;21.30;46.50;;;;;;10381039;28;20234;-72
2022/10/29 10:54:04;;;;;;;4.90;2.63;;;21.50;45.40;;;;;;10380599;28;20608;-73
2022/10/29 10:59:15;;;;;;;4.63;2.53;;;21.70;45.70;;;;;;10371081;28;20234;-72
2022/10/29 11:04:23;;;;;;;6.40;3.07;;;21.90;45.00;;;;;;10379685;28;20280;-73
2022/10/29 11:09:31;;;;;;;6.10;2.70;;;22.10;44.80;;;;;;10380817;28;20292;-71
2022/10/29 11:14:43;;;;;;;4.50;2.90;;;22.20;44.80;;;;;;10375646;28;20892;-69
2022/10/29 11:19:51;;;;;;;7.30;2.80;;;22.40;43.20;;;;;;10373070;28;20275;-68
2022/10/29 11:25:00;;;;;;;10.33;2.67;;;22.50;43.40;;;;;;10374590;28;20935;-68
2022/10/29 11:30:06;;;;;;;5.03;2.37;;;22.60;42.30;;;;;;10381516;28;20225;-68
2022/10/29 11:35:13;;;;;;;6.70;2.53;;;22.70;42.80;;;;;;10375386;28;20227;-68
2022/10/29 11:45:44;;;;;;;5.50;2.53;;;23.00;43.30;;;;;;8833612;26;20231;-70
2022/10/29 11:50:54;;;;;;;4.87;2.77;;;23.00;41.30;;;;;;10529343;28;20296;-70
2022/10/29 11:56:07;;;;;;;4.80;2.23;;;23.20;41.70;;;;;;10528871;28;20273;-70
2022/10/29 12:01:20;;;;;;;6.10;2.37;;;23.20;40.80;;;;;;10529026;28;20708;-70
2022/10/29 12:06:32;;;;;;;6.87;2.67;;;23.30;40.50;;;;;;10528870;28;20638;-69
2022/10/29 12:11:41;;;;;;;9.47;3.93;;;23.40;39.90;;;;;;10530047;28;20299;-70
2022/10/29 12:16:54;;;;;;;9.20;4.10;;;23.50;40.20;;;;;;10530355;28;20224;-70
2022/10/29 12:22:05;;;;;;;5.17;3.10;;;23.60;40.10;;;;;;10530110;28;20235;-69
2022/10/29 12:27:14;;;;;;;5.23;2.40;;;23.70;39.80;;;;;;10529778;28;20231;-70
2022/10/29 12:32:23;;;;;;;3.47;2.47;;;23.80;39.80;;;;;;10529924;28;20235;-70
2022/10/29 12:37:35;;;;;;;3.93;2.23;;;23.90;39.90;;;;;;10534865;28;20227;-70
2022/10/29 12:42:39;;;;;;;4.60;2.43;;;23.90;39.90;;;;;;10538209;28;20231;-70
2022/10/29 12:47:52;;;;;;;5.30;2.60;;;24.00;40.00;;;;;;10538195;28;20231;-70
2022/10/29 12:53:03;;;;;;;3.33;2.57;;;24.00;39.60;;;;;;10538179;28;20235;-70
2022/10/29 12:58:48;;;;;;;7.33;2.50;;;24.10;40.10;;;;;;10537297;28;20224;-70
2022/10/29 13:04:02;;;;;;;4.53;2.17;;;24.10;40.10;;;;;;10512140;28;20227;-70
2022/10/29 13:09:17;;;;;;;6.33;2.70;;;24.20;40.20;;;;;;10535568;28;20239;-70
2022/10/29 13:14:26;;;;;;;4.07;2.30;;;24.10;39.20;;;;;;10535404;28;20247;-70
2022/10/29 13:19:42;;;;;;;7.23;2.53;;;24.20;39.10;;;;;;10536714;28;20235;-70
2022/10/29 13:24:45;;;;;;;5.23;2.60;;;24.20;39.00;;;;;;10536622;28;20227;-70
2022/10/29 13:29:50;;;;;;;6.93;3.03;;;24.30;40.30;;;;;;10536268;28;20239;-70
2022/10/29 13:34:57;;;;;;;6.77;2.73;;;24.30;39.80;;;;;;10536450;28;20231;-70
2022/10/29 13:40:37;;;;;;;7.70;2.77;;;24.30;39.00;;;;;;10535799;28;20731;-70
2022/10/29 13:45:45;;;;;;;4.90;2.47;;;24.30;39.20;;;;;;10535598;28;20276;-70
2022/10/29 13:50:51;;;;;;;5.20;2.57;;;24.30;39.50;;;;;;10534773;28;20231;-70
2022/10/29 13:55:55;;;;;;;7.27;2.63;;;24.30;39.40;;;;;;10535105;28;20276;-69
2022/10/29 14:01:01;;;;;;;6.23;2.40;;;24.30;40.30;;;;;;10535133;28;20581;-70
2022/10/29 14:06:11;;;;;;;9.00;2.53;;;24.40;40.00;;;;;;10534739;28;20228;-70
2022/10/29 14:11:22;;;;;;;8.20;2.57;;;24.40;40.40;;;;;;10534667;28;20235;-71
2022/10/29 14:16:29;;;;;;;8.00;2.63;;;24.40;39.40;;;;;;10534856;28;20232;-72
2022/10/29 14:21:38;;;;;;;5.97;2.50;;;24.40;39.80;;;;;;10534417;28;20755;-72
2022/10/29 14:26:43;;;;;;;8.73;2.70;;;24.40;39.40;;;;;;10533993;28;20232;-71
2022/10/29 14:31:47;;;;;;;6.63;2.47;;;24.40;40.20;;;;;;10533995;28;20242;-72
2022/10/29 14:36:55;;;;;;;5.90;2.07;;;24.30;40.30;;;;;;10533832;28;20224;-72
2022/10/29 14:41:59;;;;;;;5.27;2.20;;;24.30;40.30;;;;;;10533160;28;20743;-72
2022/10/29 14:47:06;;;;;;;3.20;2.20;;;24.30;40.30;;;;;;10533052;28;20244;-71
2022/10/29 14:52:22;;;;;;;6.47;2.70;;;24.30;40.30;;;;;;10533304;28;20236;-72
2022/10/29 14:57:29;;;;;;;6.27;2.70;;;24.30;40.30;;;;;;10532863;28;20234;-72
2022/10/29 15:02:36;;;;;;;5.77;2.33;;;24.20;40.20;;;;;;10532755;28;20234;-72
2022/10/29 15:07:43;;;;;;;8.17;2.60;;;24.10;40.10;;;;;;10531587;28;20943;-72
2022/10/29 15:12:46;;;;;;;5.30;2.80;;;24.10;40.20;;;;;;10530508;28;20720;-72
2022/10/29 15:17:52;;;;;;;5.20;2.63;;;24.10;40.40;;;;;;10530978;28;20231;-72
2022/10/29 15:22:59;;;;;;;6.53;3.10;;;24.00;40.60;;;;;;10530377;28;20236;-72
2022/10/29 15:28:02;;;;;;;6.13;3.50;;;23.90;40.60;;;;;;10530122;28;20243;-72
2022/10/29 15:33:07;;;;;;;7.70;4.20;;;23.80;40.90;;;;;;10530149;28;20930;-72
2022/10/29 15:38:52;;;;;;;4.73;3.30;;;23.70;41.00;;;;;;10529896;28;20231;-72
2022/10/29 15:43:57;;;;;;;6.03;3.40;;;23.60;41.10;;;;;;10529641;28;20231;-72
2022/10/29 15:49:00;;;;;;;6.70;3.43;;;23.50;41.10;;;;;;10529550;28;20281;-72
2022/10/29 15:54:05;;;;;;;6.20;2.77;;;23.40;41.20;;;;;;10529208;28;20884;-72
2022/10/29 15:59:12;;;;;;;5.00;2.60;;;23.30;41.40;;;;;;10529499;28;20236;-71
2022/10/29 16:04:15;;;;;;;8.63;3.30;;;23.20;41.40;;;;;;10529120;28;20243;-72
2022/10/29 16:09:20;;;;;;;5.30;2.60;;;23.00;41.20;;;;;;10528612;28;20239;-72
2022/10/29 16:14:24;;;;;;;7.10;3.43;;;22.90;41.20;;;;;;10528311;28;20239;-72
2022/10/29 16:19:27;;;;;;;10.07;3.77;;;22.80;41.10;;;;;;10528914;28;20285;-70
2022/10/29 16:24:32;;;;;;;8.50;4.10;;;22.70;41.10;;;;;;10528521;28;20606;-72
2022/10/29 16:29:35;;;;;;;9.87;5.67;;;22.60;41.10;;;;;;10528436;28;20778;-72
2022/10/29 16:34:39;;;;;;;9.90;6.67;;;22.50;41.10;;;;;;10528366;28;20232;-72
2022/10/29 16:39:44;;;;;;;10.73;7.90;;;22.40;41.00;;;;;;10529735;28;20223;-72
2022/10/29 16:44:47;;;;;;;11.73;8.27;;;22.30;41.00;;;;;;10529340;28;20243;-72
2022/10/29 16:49:50;;;;;;;16.97;11.23;;;22.20;40.90;;;;;;10529493;28;20732;-72
2022/10/29 16:54:54;;;;;;;16.73;11.00;;;22.00;40.80;;;;;;10529502;28;20242;-72
2022/10/29 16:59:57;;;;;;;16.03;11.90;;;22.00;40.90;;;;;;10529268;28;20234;-72
2022/10/29 17:05:01;;;;;;;11.73;9.80;;;21.80;40.80;;;;;;10529366;28;20236;-71
2022/10/29 17:10:07;;;;;;;12.17;9.87;;;21.60;40.80;;;;;;10529061;28;20239;-72
2022/10/29 17:15:10;;;;;;;12.90;10.20;;;21.50;40.90;;;;;;10529026;28;20240;-72
2022/10/29 17:20:13;;;;;;;10.13;8.17;;;21.40;40.90;;;;;;10528997;28;20584;-72
2022/10/29 17:25:18;;;;;;;16.33;12.17;;;21.30;40.80;;;;;;10534534;28;20242;-72
2022/10/29 17:30:21;;;;;;;15.17;12.47;;;21.20;41.00;;;;;;10536249;28;20239;-72
2022/10/29 17:35:24;;;;;;;12.87;9.13;;;21.10;41.00;;;;;;10536140;28;20228;-71
2022/10/29 17:40:28;;;;;;;9.97;8.60;;;20.90;41.00;;;;;;10536269;28;20232;-72
2022/10/29 17:45:31;;;;;;;12.20;8.17;;;20.90;41.20;;;;;;10535592;28;20284;-72
2022/10/29 17:50:34;;;;;;;9.27;7.90;;;20.80;41.10;;;;;;10535502;28;20281;-71
2022/10/29 17:55:39;;;;;;;15.73;7.40;;;20.70;41.10;;;;;;10535580;28;20235;-72
2022/10/29 18:00:42;;;;;;;6.97;5.30;;;20.60;41.30;;;;;;10535493;28;20274;-72
2022/10/29 18:05:45;;;;;;;6.10;4.53;;;20.50;41.20;;;;;;10535070;28;20277;-71
2022/10/29 18:10:52;;;;;;;8.73;5.63;;;20.40;41.30;;;;;;10533165;28;20747;-72
2022/10/29 18:15:55;;;;;;;8.27;6.50;;;20.40;41.40;;;;;;10533156;28;20758;-72
2022/10/29 18:20:58;;;;;;;9.57;5.93;;;20.30;41.30;;;;;;10533026;28;20288;-72
2022/10/29 18:26:05;;;;;;;9.67;6.40;;;20.20;41.30;;;;;;10532844;28;20228;-71
2022/10/29 18:31:08;;;;;;;8.33;6.43;;;20.10;41.60;;;;;;10532546;28;20235;-72
2022/10/29 18:36:11;;;;;;;8.13;6.53;;;20.00;41.50;;;;;;10532211;28;20244;-72
2022/10/29 18:41:16;;;;;;;7.90;6.80;;;20.00;41.70;;;;;;10532063;28;20239;-72
2022/10/29 18:46:19;;;;;;;7.73;6.47;;;19.90;41.80;;;;;;10532201;28;20239;-72
2022/10/29 18:51:25;;;;;;;10.60;6.43;;;19.80;41.60;;;;;;10533154;28;20593;-72
2022/10/29 18:56:30;;;;;;;7.97;5.93;;;19.80;41.60;;;;;;10532988;28;20575;-71
2022/10/29 19:01:34;;;;;;;7.77;5.90;;;19.70;41.60;;;;;;10532660;28;20799;-72
2022/10/29 19:06:38;;;;;;;8.23;6.17;;;19.60;41.60;;;;;;10532829;28;20608;-72
2022/10/29 19:11:42;;;;;;;9.77;6.97;;;19.60;41.60;;;;;;10532326;28;20239;-71
2022/10/29 19:16:45;;;;;;;15.67;10.53;;;19.50;41.50;;;;;;10532243;28;20724;-72
2022/10/29 19:21:48;;;;;;;24.80;15.50;;;19.50;41.50;;;;;;10531983;28;20231;-72
2022/10/29 19:26:53;;;;;;;21.43;14.67;;;19.30;41.50;;;;;;10531741;28;20227;-71
2022/10/29 19:31:56;;;;;;;13.73;9.43;;;19.20;41.90;;;;;;10531814;28;20227;-71
2022/10/29 19:36:59;;;;;;;13.23;7.90;;;19.00;42.00;;;;;;10531717;28;20745;-72
2022/10/29 19:42:04;;;;;;;9.53;7.23;;;18.80;42.50;;;;;;10531123;28;20231;-72
2022/10/29 19:47:07;;;;;;;12.50;8.20;;;18.60;43.10;;;;;;10530388;28;20239;-71
2022/10/29 19:52:10;;;;;;;12.63;8.37;;;18.60;42.70;;;;;;10530907;28;20228;-72
2022/10/29 19:57:15;;;;;;;12.37;8.40;;;18.50;42.70;;;;;;10530813;28;20748;-71
2022/10/29 20:02:18;;;;;;;7.73;6.87;;;18.50;43.10;;;;;;10530461;28;20628;-71
2022/10/29 20:07:21;;;;;;;11.00;7.00;;;18.40;42.80;;;;;;10530715;28;20285;-72
2022/10/29 20:12:25;;;;;;;10.63;7.00;;;18.30;43.10;;;;;;10529960;28;20617;-71
2022/10/29 20:17:30;;;;;;;12.67;7.40;;;18.30;43.40;;;;;;10530444;28;20235;-71
2022/10/29 20:22:34;;;;;;;9.60;7.37;;;18.20;43.40;;;;;;10530151;28;20257;-72
2022/10/29 20:27:38;;;;;;;7.87;6.63;;;18.20;43.20;;;;;;10529986;28;20239;-72
2022/10/29 20:32:41;;;;;;;8.20;7.00;;;18.10;43.50;;;;;;10530058;28;20243;-71
2022/10/29 20:37:44;;;;;;;8.80;7.13;;;18.20;43.50;;;;;;10529707;28;20744;-72
2022/10/29 20:42:50;;;;;;;8.40;6.60;;;18.20;43.60;;;;;;10529719;28;20235;-71
2022/10/29 20:47:53;;;;;;;7.63;6.47;;;18.20;43.90;;;;;;10529604;28;20234;-71
2022/10/29 20:52:57;;;;;;;10.10;6.33;;;18.20;43.50;;;;;;10529430;28;20288;-71
2022/10/29 20:58:02;;;;;;;8.13;6.13;;;18.20;43.50;;;;;;10533426;28;20307;-71
2022/10/29 21:03:05;;;;;;;7.07;5.90;;;18.20;43.50;;;;;;10537487;28;20239;-72
2022/10/29 21:08:09;;;;;;;6.70;5.83;;;18.30;43.50;;;;;;10537741;28;20235;-71
2022/10/29 21:13:13;;;;;;;8.03;5.97;;;18.20;43.30;;;;;;10537038;28;20292;-72
2022/10/29 21:18:16;;;;;;;8.03;5.83;;;18.20;43.40;;;;;;10537168;28;20231;-71
2022/10/29 21:23:19;;;;;;;9.93;6.27;;;18.20;43.20;;;;;;10536958;28;20239;-72
2022/10/29 21:28:27;;;;;;;9.93;5.93;;;18.10;42.90;;;;;;10536679;28;20250;-72
2022/10/29 21:33:31;;;;;;;8.87;5.60;;;18.00;42.80;;;;;;10536561;28;20231;-72
2022/10/29 21:38:34;;;;;;;5.70;4.97;;;17.90;42.80;;;;;;10536680;28;20292;-71
2022/10/29 21:43:39;;;;;;;7.80;5.60;;;17.90;43.00;;;;;;10536100;28;20232;-71
2022/10/29 21:48:42;;;;;;;7.33;5.67;;;17.80;43.10;;;;;;10535686;28;20235;-72
2022/10/29 21:53:45;;;;;;;7.17;5.53;;;17.70;42.90;;;;;;10535794;28;20231;-71
2022/10/29 21:58:52;;;;;;;6.00;5.40;;;17.70;43.00;;;;;;10535219;28;20280;-71
2022/10/29 22:03:55;;;;;;;7.57;6.23;;;17.70;43.30;;;;;;10535256;28;20242;-71
2022/10/29 22:08:59;;;;;;;8.60;5.77;;;17.70;43.10;;;;;;10534220;28;20293;-71
2022/10/29 22:14:04;;;;;;;9.93;6.43;;;17.60;43.10;;;;;;10534569;28;20305;-72
2022/10/29 22:19:07;;;;;;;10.83;6.43;;;17.60;43.30;;;;;;10534863;28;20239;-71
2022/10/29 22:24:11;;;;;;;6.50;5.90;;;17.60;43.10;;;;;;10534615;28;20235;-71
2022/10/29 22:29:16;;;;;;;8.33;5.97;;;17.50;43.00;;;;;;10533879;28;20286;-71
2022/10/29 22:34:19;;;;;;;10.13;6.60;;;17.50;43.10;;;;;;10534287;28;20285;-71
2022/10/29 22:39:22;;;;;;;6.83;5.97;;;17.40;43.00;;;;;;10534049;28;20744;-71
2022/10/29 22:44:26;;;;;;;7.10;6.00;;;17.40;42.90;;;;;;10533529;28;20235;-72
2022/10/29 22:49:30;;;;;;;8.97;6.20;;;17.30;43.10;;;;;;10533390;28;20284;-71
2022/10/29 22:54:33;;;;;;;7.83;5.47;;;17.20;42.90;;;;;;10533143;28;20235;-71
2022/10/29 22:59:37;;;;;;;6.23;4.27;;;17.20;43.00;;;;;;10532952;28;20227;-71
2022/10/29 23:04:40;;;;;;;18.23;6.30;;;17.10;43.10;;;;;;10532590;28;20254;-71
2022/10/29 23:09:43;;;;;;;5.97;5.30;;;17.10;43.00;;;;;;10532694;28;20738;-72
2022/10/29 23:14:48;;;;;;;8.67;6.10;;;17.00;42.90;;;;;;10532297;28;20258;-71
2022/10/29 23:19:54;;;;;;;8.50;6.40;;;16.90;43.30;;;;;;10532411;28;20293;-71
2022/10/29 23:24:57;;;;;;;8.50;6.33;;;16.80;43.20;;;;;;10532071;28;20235;-71
2022/10/29 23:30:02;;;;;;;7.33;5.90;;;16.70;43.30;;;;;;10531610;28;20296;-71
2022/10/29 23:35:06;;;;;;;5.53;4.07;;;16.70;43.50;;;;;;10531503;28;20705;-72
2022/10/29 23:40:10;;;;;;;9.00;5.73;;;16.70;43.50;;;;;;10531749;28;20227;-71
2022/10/29 23:45:15;;;;;;;10.47;5.70;;;16.70;43.60;;;;;;10531029;28;20289;-71
2022/10/29 23:50:18;;;;;;;5.57;4.80;;;16.70;43.50;;;;;;10531191;28;20309;-71
2022/10/29 23:55:22;;;;;;;4.53;4.10;;;16.60;43.10;;;;;;10531009;28;20247;-71
